sensor_id;sensor_type;location;lat;lon;timestamp;pressure;altitude;pressure_sealevel;temperature;humidity
42761;BME280;31672;47.638;19.026;2022-11-04T00:02:48;99925.53;;;10.12;97.46
42761;BME280;31672;47.638;19.026;2022-11-04T00:07:50;99922.56;;;10.15;97.43
42761;BME280;31672;47.638;19.026;2022-11-04T00:13:12;99919.91;;;10.15;97.61
42761;BME280;31672;47.638;19.026;2022-11-04T00:18:15;99913.94;;;10.13;97.51
42761;BME280;31672;47.638;19.026;2022-11-04T00:23:18;99904.13;;;10.13;97.44
42761;BME280;31672;47.638;19.026;2022-11-04T00:28:39;99901.66;;;10.12;97.71
42761;BME280;31672;47.638;19.026;2022-11-04T00:33:46;99894.38;;;10.14;97.66
42761;BME280;31672;47.638;19.026;2022-11-04T00:38:50;99890.34;;;10.18;97.57
42761;BME280;31672;47.638;19.026;2022-11-04T00:43:57;99874.91;;;10.22;97.74
42761;BME280;31672;47.638;19.026;2022-11-04T00:49:00;99867.28;;;10.18;97.58
42761;BME280;31672;47.638;19.026;2022-11-04T00:54:04;99861.63;;;10.22;97.56
42761;BME280;31672;47.638;19.026;2022-11-04T00:59:07;99856.16;;;10.23;97.73
42761;BME280;31672;47.638;19.026;2022-11-04T01:04:16;99846.19;;;10.25;97.67
42761;BME280;31672;47.638;19.026;2022-11-04T01:09:18;99843.53;;;10.25;97.58
42761;BME280;31672;47.638;19.026;2022-11-04T01:14:22;99835.41;;;10.27;97.75
42761;BME280;31672;47.638;19.026;2022-11-04T01:19:24;99836.06;;;10.29;97.61
42761;BME280;31672;47.638;19.026;2022-11-04T01:24:27;99821.94;;;10.28;97.59
42761;BME280;31672;47.638;19.026;2022-11-04T01:29:30;99821.94;;;10.28;97.50
42761;BME280;31672;47.638;19.026;2022-11-04T01:34:33;99812.97;;;10.29;97.67
42761;BME280;31672;47.638;19.026;2022-11-04T01:39:41;99793.56;;;10.29;97.60
42761;BME280;31672;47.638;19.026;2022-11-04T01:45:03;99800.72;;;10.28;97.45
42761;BME280;31672;47.638;19.026;2022-11-04T01:50:10;99780.28;;;10.29;97.71
42761;BME280;31672;47.638;19.026;2022-11-04T01:55:20;99770.50;;;10.29;97.70
42761;BME280;31672;47.638;19.026;2022-11-04T02:00:24;99759.88;;;10.29;97.87
42761;BME280;31672;47.638;19.026;2022-11-04T02:05:28;99752.91;;;10.28;97.79
42761;BME280;31672;47.638;19.026;2022-11-04T02:10:31;99741.47;;;10.28;97.83
42761;BME280;31672;47.638;19.026;2022-11-04T02:16:00;99738.81;;;10.28;97.98
42761;BME280;31672;47.638;19.026;2022-11-04T02:32:07;99725.34;;;10.29;98.29
42761;BME280;31672;47.638;19.026;2022-11-04T02:42:36;99713.06;;;10.28;98.73
42761;BME280;31672;47.638;19.026;2022-11-04T02:47:44;99687.38;;;10.21;98.70
42761;BME280;31672;47.638;19.026;2022-11-04T02:52:58;99702.50;;;10.20;98.84
42761;BME280;31672;47.638;19.026;2022-11-04T02:58:07;99688.09;;;10.14;98.79
42761;BME280;31672;47.638;19.026;2022-11-04T03:03:24;99687.59;;;10.11;98.88
42761;BME280;31672;47.638;19.026;2022-11-04T03:08:33;99675.69;;;10.07;98.95
42761;BME280;31672;47.638;19.026;2022-11-04T03:24:23;99667.59;;;10.00;99.26
42761;BME280;31672;47.638;19.026;2022-11-04T03:29:36;99665.13;;;9.99;99.03
42761;BME280;31672;47.638;19.026;2022-11-04T03:34:41;99655.88;;;9.95;98.96
42761;BME280;31672;47.638;19.026;2022-11-04T03:39:43;99654.75;;;9.89;98.74
42761;BME280;31672;47.638;19.026;2022-11-04T03:44:51;99653.28;;;9.86;98.66
42761;BME280;31672;47.638;19.026;2022-11-04T03:50:06;99643.00;;;9.83;98.68
42761;BME280;31672;47.638;19.026;2022-11-04T03:55:10;99629.47;;;9.78;98.55
42761;BME280;31672;47.638;19.026;2022-11-04T04:00:15;99624.03;;;9.72;98.47
42761;BME280;31672;47.638;19.026;2022-11-04T04:05:38;99610.28;;;9.68;98.58
42761;BME280;31672;47.638;19.026;2022-11-04T04:11:04;99615.59;;;9.68;98.49
42761;BME280;31672;47.638;19.026;2022-11-04T04:16:32;99601.84;;;9.64;98.57
42761;BME280;31672;47.638;19.026;2022-11-04T04:21:36;99613.00;;;9.60;98.63
42761;BME280;31672;47.638;19.026;2022-11-04T04:26:42;99601.59;;;9.51;98.52
42761;BME280;31672;47.638;19.026;2022-11-04T04:32:05;99591.50;;;9.47;98.90
42761;BME280;31672;47.638;19.026;2022-11-04T04:37:13;99581.59;;;9.41;99.04
42761;BME280;31672;47.638;19.026;2022-11-04T04:42:18;99590.56;;;9.39;99.25
42761;BME280;31672;47.638;19.026;2022-11-04T04:47:43;99583.63;;;9.38;99.42
42761;BME280;31672;47.638;19.026;2022-11-04T04:52:51;99589.25;;;9.35;99.63
42761;BME280;31672;47.638;19.026;2022-11-04T04:57:55;99581.66;;;9.32;99.76
42761;BME280;31672;47.638;19.026;2022-11-04T05:02:58;99576.69;;;9.29;99.83
42761;BME280;31672;47.638;19.026;2022-11-04T05:08:05;99568.81;;;9.21;99.90
42761;BME280;31672;47.638;19.026;2022-11-04T05:13:10;99572.47;;;9.20;100.00
42761;BME280;31672;47.638;19.026;2022-11-04T05:18:30;99594.66;;;9.19;100.00
42761;BME280;31672;47.638;19.026;2022-11-04T05:23:34;99597.13;;;9.21;100.00
42761;BME280;31672;47.638;19.026;2022-11-04T05:28:37;99594.34;;;9.14;100.00
42761;BME280;31672;47.638;19.026;2022-11-04T05:33:41;99594.00;;;9.17;100.00
42761;BME280;31672;47.638;19.026;2022-11-04T05:38:49;99588.22;;;9.14;100.00
42761;BME280;31672;47.638;19.026;2022-11-04T05:43:57;99581.28;;;9.13;100.00
42761;BME280;31672;47.638;19.026;2022-11-04T05:49:00;99577.13;;;9.10;100.00
42761;BME280;31672;47.638;19.026;2022-11-04T05:54:03;99575.50;;;9.09;100.00
42761;BME280;31672;47.638;19.026;2022-11-04T05:59:06;99577.50;;;9.07;100.00
42761;BME280;31672;47.638;19.026;2022-11-04T06:04:14;99578.66;;;9.04;100.00
42761;BME280;31672;47.638;19.026;2022-11-04T06:09:17;99590.06;;;9.05;100.00
42761;BME280;31672;47.638;19.026;2022-11-04T06:14:20;99602.00;;;9.09;100.00
42761;BME280;31672;47.638;19.026;2022-11-04T06:19:23;99600.16;;;9.09;100.00
42761;BME280;31672;47.638;19.026;2022-11-04T06:24:26;99596.38;;;9.04;100.00
42761;BME280;31672;47.638;19.026;2022-11-04T06:29:28;99597.75;;;9.00;100.00
42761;BME280;31672;47.638;19.026;2022-11-04T06:34:31;99603.03;;;9.00;100.00
42761;BME280;31672;47.638;19.026;2022-11-04T06:39:34;99615.63;;;8.98;100.00
42761;BME280;31672;47.638;19.026;2022-11-04T06:44:37;99608.38;;;8.92;100.00
42761;BME280;31672;47.638;19.026;2022-11-04T06:49:43;99607.72;;;8.90;100.00
42761;BME280;31672;47.638;19.026;2022-11-04T06:54:46;99599.13;;;8.88;100.00
42761;BME280;31672;47.638;19.026;2022-11-04T06:59:49;99601.41;;;8.91;100.00
42761;BME280;31672;47.638;19.026;2022-11-04T07:04:53;99595.94;;;8.92;100.00
42761;BME280;31672;47.638;19.026;2022-11-04T07:09:56;99593.47;;;8.91;100.00
42761;BME280;31672;47.638;19.026;2022-11-04T07:14:59;99598.25;;;8.95;100.00
42761;BME280;31672;47.638;19.026;2022-11-04T07:20:02;99603.38;;;8.97;100.00
42761;BME280;31672;47.638;19.026;2022-11-04T07:25:07;99600.41;;;9.00;100.00
42761;BME280;31672;47.638;19.026;2022-11-04T07:30:10;99605.69;;;9.00;100.00
42761;BME280;31672;47.638;19.026;2022-11-04T07:35:14;99605.16;;;9.04;100.00
42761;BME280;31672;47.638;19.026;2022-11-04T07:40:17;99603.19;;;9.06;100.00
42761;BME280;31672;47.638;19.026;2022-11-04T07:45:19;99589.75;;;9.08;100.00
42761;BME280;31672;47.638;19.026;2022-11-04T07:50:22;99582.44;;;9.10;100.00
42761;BME280;31672;47.638;19.026;2022-11-04T07:55:25;99569.50;;;9.15;100.00
42761;BME280;31672;47.638;19.026;2022-11-04T08:00:28;99579.78;;;9.18;100.00
42761;BME280;31672;47.638;19.026;2022-11-04T08:05:31;99561.84;;;9.20;100.00
42761;BME280;31672;47.638;19.026;2022-11-04T08:10:34;99556.88;;;9.17;100.00
42761;BME280;31672;47.638;19.026;2022-11-04T08:15:37;99547.97;;;9.18;99.96
42761;BME280;31672;47.638;19.026;2022-11-04T08:20:40;99542.66;;;9.18;100.00
42761;BME280;31672;47.638;19.026;2022-11-04T08:25:43;99549.25;;;9.22;99.96
42761;BME280;31672;47.638;19.026;2022-11-04T08:30:57;99550.25;;;9.21;99.68
42761;BME280;31672;47.638;19.026;2022-11-04T08:36:07;99541.47;;;9.21;99.55
42761;BME280;31672;47.638;19.026;2022-11-04T08:41:13;99538.63;;;9.22;99.52
42761;BME280;31672;47.638;19.026;2022-11-04T08:46:16;99537.00;;;9.21;99.49
42761;BME280;31672;47.638;19.026;2022-11-04T08:51:22;99540.00;;;9.18;99.44
42761;BME280;31672;47.638;19.026;2022-11-04T08:56:28;99537.50;;;9.17;99.30
42761;BME280;31672;47.638;19.026;2022-11-04T09:01:34;99540.69;;;9.12;99.32
42761;BME280;31672;47.638;19.026;2022-11-04T09:06:41;99528.44;;;9.11;99.35
42761;BME280;31672;47.638;19.026;2022-11-04T09:11:45;99518.19;;;9.08;99.38
42761;BME280;31672;47.638;19.026;2022-11-04T09:16:48;99521.16;;;9.13;99.40
42761;BME280;31672;47.638;19.026;2022-11-04T09:21:51;99509.53;;;9.14;99.38
42761;BME280;31672;47.638;19.026;2022-11-04T09:26:54;99516.97;;;9.19;99.04
42761;BME280;31672;47.638;19.026;2022-11-04T09:31:56;99503.53;;;9.20;99.06
42761;BME280;31672;47.638;19.026;2022-11-04T09:37:00;99493.53;;;9.30;98.59
42761;BME280;31672;47.638;19.026;2022-11-04T09:42:08;99504.13;;;9.30;98.61
42761;BME280;31672;47.638;19.026;2022-11-04T09:47:18;99484.91;;;9.28;98.81
42761;BME280;31672;47.638;19.026;2022-11-04T09:52:28;99486.41;;;9.31;99.05
42761;BME280;31672;47.638;19.026;2022-11-04T09:57:32;99480.97;;;9.24;99.07
42761;BME280;31672;47.638;19.026;2022-11-04T10:02:48;99482.31;;;9.20;99.11
42761;BME280;31672;47.638;19.026;2022-11-04T10:08:17;99482.84;;;9.16;99.47
42761;BME280;31672;47.638;19.026;2022-11-04T10:13:38;99475.25;;;9.13;99.51
42761;BME280;31672;47.638;19.026;2022-11-04T10:24:41;99462.47;;;9.16;100.00
42761;BME280;31672;47.638;19.026;2022-11-04T10:29:51;99446.75;;;9.15;100.00
42761;BME280;31672;47.638;19.026;2022-11-04T10:34:57;99432.28;;;9.17;100.00
42761;BME280;31672;47.638;19.026;2022-11-04T10:45:25;99422.88;;;9.15;100.00
42761;BME280;31672;47.638;19.026;2022-11-04T10:50:38;99420.13;;;9.08;100.00
42761;BME280;31672;47.638;19.026;2022-11-04T10:56:03;99419.81;;;9.03;100.00
42761;BME280;31672;47.638;19.026;2022-11-04T11:01:28;99408.94;;;8.98;100.00
42761;BME280;31672;47.638;19.026;2022-11-04T11:06:33;99403.22;;;8.86;100.00
42761;BME280;31672;47.638;19.026;2022-11-04T11:11:48;99395.78;;;8.81;100.00
42761;BME280;31672;47.638;19.026;2022-11-04T11:16:53;99396.16;;;8.78;100.00
42761;BME280;31672;47.638;19.026;2022-11-04T11:21:56;99392.88;;;8.76;100.00
42761;BME280;31672;47.638;19.026;2022-11-04T11:27:01;99393.84;;;8.75;100.00
42761;BME280;31672;47.638;19.026;2022-11-04T11:32:06;99380.56;;;8.83;100.00
42761;BME280;31672;47.638;19.026;2022-11-04T11:37:20;99379.47;;;8.93;100.00
42761;BME280;31672;47.638;19.026;2022-11-04T11:42:24;99362.88;;;8.99;100.00
42761;BME280;31672;47.638;19.026;2022-11-04T11:52:32;99354.50;;;9.10;100.00
42761;BME280;31672;47.638;19.026;2022-11-04T12:08:41;99336.53;;;9.35;100.00
42761;BME280;31672;47.638;19.026;2022-11-04T12:14:14;99322.31;;;9.36;100.00
42761;BME280;31672;47.638;19.026;2022-11-04T12:30:23;99291.94;;;9.38;100.00
42761;BME280;31672;47.638;19.026;2022-11-04T12:41:22;99289.47;;;9.52;100.00
42761;BME280;31672;47.638;19.026;2022-11-04T12:52:19;99262.88;;;9.60;100.00
42761;BME280;31672;47.638;19.026;2022-11-04T12:57:54;99262.69;;;9.61;100.00
42761;BME280;31672;47.638;19.026;2022-11-04T13:03:14;99267.88;;;9.70;100.00
42761;BME280;31672;47.638;19.026;2022-11-04T13:08:27;99260.81;;;9.77;100.00
42761;BME280;31672;47.638;19.026;2022-11-04T13:13:35;99254.31;;;9.79;100.00
42761;BME280;31672;47.638;19.026;2022-11-04T13:18:39;99250.28;;;9.83;100.00
42761;BME280;31672;47.638;19.026;2022-11-04T13:29:06;99254.59;;;9.84;100.00
42761;BME280;31672;47.638;19.026;2022-11-04T13:39:38;99235.34;;;9.97;100.00
42761;BME280;31672;47.638;19.026;2022-11-04T13:44:45;99233.78;;;10.03;100.00
42761;BME280;31672;47.638;19.026;2022-11-04T13:49:51;99223.53;;;10.00;100.00
42761;BME280;31672;47.638;19.026;2022-11-04T13:55:01;99223.53;;;10.00;100.00
42761;BME280;31672;47.638;19.026;2022-11-04T14:16:12;99225.81;;;10.03;100.00
42761;BME280;31672;47.638;19.026;2022-11-04T14:22:03;99220.66;;;10.01;100.00
42761;BME280;31672;47.638;19.026;2022-11-04T14:26:58;99220.88;;;10.00;100.00
42761;BME280;31672;47.638;19.026;2022-11-04T14:32:00;99208.41;;;10.00;100.00
42761;BME280;31672;47.638;19.026;2022-11-04T14:37:21;99200.28;;;10.02;100.00
42761;BME280;31672;47.638;19.026;2022-11-04T14:42:43;99199.44;;;10.01;100.00
42761;BME280;31672;47.638;19.026;2022-11-04T14:47:49;99181.50;;;10.03;100.00
42761;BME280;31672;47.638;19.026;2022-11-04T14:53:02;99161.09;;;10.04;100.00
42761;BME280;31672;47.638;19.026;2022-11-04T14:58:25;99182.31;;;10.04;100.00
42761;BME280;31672;47.638;19.026;2022-11-04T15:03:36;99179.47;;;10.05;100.00
42761;BME280;31672;47.638;19.026;2022-11-04T15:08:59;99184.44;;;10.08;100.00
42761;BME280;31672;47.638;19.026;2022-11-04T15:14:29;99180.75;;;10.09;100.00
42761;BME280;31672;47.638;19.026;2022-11-04T15:19:33;99173.00;;;10.08;100.00
42761;BME280;31672;47.638;19.026;2022-11-04T15:24:37;99167.69;;;10.08;100.00
42761;BME280;31672;47.638;19.026;2022-11-04T15:29:40;99182.13;;;10.05;100.00
42761;BME280;31672;47.638;19.026;2022-11-04T15:34:42;99179.06;;;10.02;100.00
42761;BME280;31672;47.638;19.026;2022-11-04T15:39:49;99182.69;;;10.01;100.00
42761;BME280;31672;47.638;19.026;2022-11-04T15:44:53;99172.66;;;9.96;100.00
42761;BME280;31672;47.638;19.026;2022-11-04T15:50:14;99166.97;;;9.99;100.00
42761;BME280;31672;47.638;19.026;2022-11-04T15:55:24;99165.25;;;9.91;100.00
42761;BME280;31672;47.638;19.026;2022-11-04T16:00:28;99175.06;;;9.91;100.00
42761;BME280;31672;47.638;19.026;2022-11-04T16:05:35;99161.97;;;9.89;100.00
42761;BME280;31672;47.638;19.026;2022-11-04T16:10:41;99184.84;;;9.90;100.00
42761;BME280;31672;47.638;19.026;2022-11-04T16:21:29;99178.53;;;9.91;100.00
42761;BME280;31672;47.638;19.026;2022-11-04T16:26:41;99186.28;;;9.93;100.00
42761;BME280;31672;47.638;19.026;2022-11-04T16:31:44;99196.09;;;9.92;100.00
42761;BME280;31672;47.638;19.026;2022-11-04T16:36:47;99193.25;;;9.94;100.00
42761;BME280;31672;47.638;19.026;2022-11-04T16:41:50;99173.84;;;9.93;100.00
42761;BME280;31672;47.638;19.026;2022-11-04T16:46:53;99176.31;;;9.95;100.00
42761;BME280;31672;47.638;19.026;2022-11-04T16:52:01;99174.88;;;9.92;100.00
42761;BME280;31672;47.638;19.026;2022-11-04T16:57:09;99179.63;;;9.97;100.00
42761;BME280;31672;47.638;19.026;2022-11-04T17:07:19;99169.19;;;9.96;100.00
42761;BME280;31672;47.638;19.026;2022-11-04T17:12:42;99172.22;;;9.92;100.00
42761;BME280;31672;47.638;19.026;2022-11-04T17:17:46;99180.53;;;9.89;100.00
42761;BME280;31672;47.638;19.026;2022-11-04T17:22:49;99183.56;;;9.86;100.00
42761;BME280;31672;47.638;19.026;2022-11-04T17:27:54;99183.78;;;9.85;100.00
42761;BME280;31672;47.638;19.026;2022-11-04T17:32:57;99173.97;;;9.85;100.00
42761;BME280;31672;47.638;19.026;2022-11-04T17:38:00;99176.25;;;9.88;100.00
42761;BME280;31672;47.638;19.026;2022-11-04T17:43:06;99164.59;;;9.89;100.00
42761;BME280;31672;47.638;19.026;2022-11-04T17:48:27;99160.78;;;9.92;100.00
42761;BME280;31672;47.638;19.026;2022-11-04T17:53:30;99166.53;;;9.96;100.00
42761;BME280;31672;47.638;19.026;2022-11-04T17:58:33;99180.44;;;9.98;100.00
42761;BME280;31672;47.638;19.026;2022-11-04T18:03:36;99161.84;;;9.98;100.00
42761;BME280;31672;47.638;19.026;2022-11-04T18:08:39;99163.94;;;10.02;100.00
42761;BME280;31672;47.638;19.026;2022-11-04T18:13:42;99175.38;;;10.03;100.00
42761;BME280;31672;47.638;19.026;2022-11-04T18:18:44;99167.69;;;10.08;100.00
42761;BME280;31672;47.638;19.026;2022-11-04T18:23:47;99164.00;;;10.09;100.00
42761;BME280;31672;47.638;19.026;2022-11-04T18:28:50;99157.06;;;10.08;100.00
42761;BME280;31672;47.638;19.026;2022-11-04T18:33:54;99143.13;;;10.06;100.00
42761;BME280;31672;47.638;19.026;2022-11-04T18:38:59;99152.94;;;10.05;100.00
42761;BME280;31672;47.638;19.026;2022-11-04T18:44:02;99212.53;;;10.03;100.00
42761;BME280;31672;47.638;19.026;2022-11-04T18:49:06;99238.56;;;9.92;100.00
42761;BME280;31672;47.638;19.026;2022-11-04T18:54:09;99218.34;;;9.91;100.00
42761;BME280;31672;47.638;19.026;2022-11-04T18:59:13;99237.53;;;9.93;100.00
42761;BME280;31672;47.638;19.026;2022-11-04T19:04:17;99215.28;;;9.95;100.00
42761;BME280;31672;47.638;19.026;2022-11-04T19:09:20;99205.13;;;9.98;100.00
42761;BME280;31672;47.638;19.026;2022-11-04T19:14:43;99233.94;;;10.01;100.00
42761;BME280;31672;47.638;19.026;2022-11-04T19:19:47;99208.06;;;10.03;100.00
42761;BME280;31672;47.638;19.026;2022-11-04T19:24:50;99196.22;;;10.06;100.00
42761;BME280;31672;47.638;19.026;2022-11-04T19:29:53;99196.47;;;10.11;100.00
42761;BME280;31672;47.638;19.026;2022-11-04T19:34:56;99191.44;;;10.16;100.00
42761;BME280;31672;47.638;19.026;2022-11-04T19:39:59;99196.34;;;10.19;100.00
42761;BME280;31672;47.638;19.026;2022-11-04T19:45:03;99188.22;;;10.21;100.00
42761;BME280;31672;47.638;19.026;2022-11-04T19:50:06;99201.94;;;10.24;100.00
42761;BME280;31672;47.638;19.026;2022-11-04T19:55:09;99198.28;;;10.25;100.00
42761;BME280;31672;47.638;19.026;2022-11-04T20:00:13;99207.09;;;10.26;100.00
42761;BME280;31672;47.638;19.026;2022-11-04T20:05:16;99209.56;;;10.27;100.00
42761;BME280;31672;47.638;19.026;2022-11-04T20:10:21;99193.41;;;10.29;100.00
42761;BME280;31672;47.638;19.026;2022-11-04T20:15:24;99189.75;;;10.30;100.00
42761;BME280;31672;47.638;19.026;2022-11-04T20:20:27;99201.03;;;10.32;100.00
42761;BME280;31672;47.638;19.026;2022-11-04T20:25:30;99218.97;;;10.30;100.00
42761;BME280;31672;47.638;19.026;2022-11-04T20:30:37;99216.50;;;10.28;100.00
42761;BME280;31672;47.638;19.026;2022-11-04T20:35:40;99221.81;;;10.28;100.00
42761;BME280;31672;47.638;19.026;2022-11-04T20:40:43;99230.41;;;10.30;100.00
42761;BME280;31672;47.638;19.026;2022-11-04T20:45:48;99227.13;;;10.28;100.00
42761;BME280;31672;47.638;19.026;2022-11-04T20:50:54;99221.00;;;10.28;100.00
42761;BME280;31672;47.638;19.026;2022-11-04T20:55:57;99224.47;;;10.28;100.00
42761;BME280;31672;47.638;19.026;2022-11-04T21:01:01;99233.44;;;10.27;100.00
42761;BME280;31672;47.638;19.026;2022-11-04T21:06:05;99222.16;;;10.25;100.00
42761;BME280;31672;47.638;19.026;2022-11-04T21:11:07;99233.16;;;10.22;100.00
42761;BME280;31672;47.638;19.026;2022-11-04T21:16:12;99220.91;;;10.21;100.00
42761;BME280;31672;47.638;19.026;2022-11-04T21:21:16;99238.47;;;10.22;100.00
42761;BME280;31672;47.638;19.026;2022-11-04T21:26:21;99242.78;;;10.23;100.00
42761;BME280;31672;47.638;19.026;2022-11-04T21:31:24;99246.06;;;10.25;100.00
42761;BME280;31672;47.638;19.026;2022-11-04T21:36:27;99254.50;;;10.29;100.00
42761;BME280;31672;47.638;19.026;2022-11-04T21:41:31;99268.03;;;10.34;100.00
42761;BME280;31672;47.638;19.026;2022-11-04T21:46:39;99267.63;;;10.37;100.00
42761;BME280;31672;47.638;19.026;2022-11-04T21:51:41;99273.41;;;10.40;100.00
42761;BME280;31672;47.638;19.026;2022-11-04T21:56:44;99271.22;;;10.44;100.00
42761;BME280;31672;47.638;19.026;2022-11-04T22:01:48;99272.66;;;10.47;100.00
42761;BME280;31672;47.638;19.026;2022-11-04T22:06:51;99269.38;;;10.44;100.00
42761;BME280;31672;47.638;19.026;2022-11-04T22:11:54;99264.41;;;10.41;100.00
42761;BME280;31672;47.638;19.026;2022-11-04T22:16:57;99262.78;;;10.40;100.00
42761;BME280;31672;47.638;19.026;2022-11-04T22:22:00;99267.28;;;10.40;100.00
42761;BME280;31672;47.638;19.026;2022-11-04T22:27:02;99267.63;;;10.37;100.00
42761;BME280;31672;47.638;19.026;2022-11-04T22:32:05;99262.47;;;10.29;100.00
42761;BME280;31672;47.638;19.026;2022-11-04T22:37:08;99268.69;;;10.21;100.00
42761;BME280;31672;47.638;19.026;2022-11-04T22:42:11;99274.75;;;10.15;100.00
42761;BME280;31672;47.638;19.026;2022-11-04T22:47:13;99275.94;;;10.12;100.00
42761;BME280;31672;47.638;19.026;2022-11-04T22:52:16;99274.84;;;10.07;100.00
42761;BME280;31672;47.638;19.026;2022-11-04T22:57:19;99266.44;;;10.03;100.00
42761;BME280;31672;47.638;19.026;2022-11-04T23:02:22;99278.31;;;10.07;100.00
42761;BME280;31672;47.638;19.026;2022-11-04T23:07:25;99264.41;;;10.05;100.00
42761;BME280;31672;47.638;19.026;2022-11-04T23:12:28;99259.09;;;10.05;100.00
42761;BME280;31672;47.638;19.026;2022-11-04T23:17:49;99277.50;;;10.07;100.00
42761;BME280;31672;47.638;19.026;2022-11-04T23:23:11;99272.19;;;10.07;100.00
42761;BME280;31672;47.638;19.026;2022-11-04T23:28:33;99281.56;;;10.03;100.00
42761;BME280;31672;47.638;19.026;2022-11-04T23:33:54;99281.28;;;9.98;100.00
42761;BME280;31672;47.638;19.026;2022-11-04T23:39:15;99284.03;;;9.89;100.00
42761;BME280;31672;47.638;19.026;2022-11-04T23:44:18;99283.13;;;9.82;100.00
42761;BME280;31672;47.638;19.026;2022-11-04T23:49:39;99295.69;;;9.74;100.00
42761;BME280;31672;47.638;19.026;2022-11-04T23:55:00;99283.34;;;9.66;100.00
